Startpagina
METAR-TAF:

METAR-TAF

Vliegvelden :

Aéroport de La Réunion Roland-Garros

Saint-Denis, Réunion

breedte: 20-53S, lengte: 055-31E, hoogte: 21 m

Actueel weer

Dit bericht is 40 minuten geleden gemaakt, om 20:30 UTC
Wind 10 kt uit het zuidzuidoosten
Temperatuur 21°C
Vochtigheid 64%
Druk 1019 hPa
Zicht 10 km of meer
Weinig wolken op 8000 ft

METAR: FMEE 232030Z AUTO 16010KT 9999 FEW080 21/14 Q1019 NOSIG

Tijdstip: 01:10 (21:10 UTC)

Verwachting

Dit bericht is 4 uur en het 10 minuten geleden gemaakt, om 17:00 UTC
Verwachting geldig van 23 om 18 UTC tot 24 om 24 UTC
Wind 15 kt uit het zuidoosten
Zicht 10 km of meer
geen wolken onder 1500 m en geen cumulonimbus
Kans 40% :
Tijdelijke
van 24 om 06 UTC tot 24 om 12 UTC
Wind 20 kt uit het oostzuidoosten met uitschieters tot 30 kt

TAF: FMEE 231700Z 2318/2424 13015KT CAVOK PROB40 TEMPO 2406/2412 12020G30KT

Waarnemingen en weersverwachtingen van meer dan 4000 vliegvelden (METAR en TAF).

De beschikbare stations zijn de gele en rode punten op de kaart.

Ga met uw muis naar het station om de naam te zien.

Klik dan om waarnemingen en weersverwachtingen te zien.

kaart wijzigen: klik op de groene knoppen met een zwart kruis om in te zoomen, op de groene knop met een streepje om uit te zoomen of op de groene pijlen voor aangrenzende kaarten.


METAR-TAF: